sensor_id;sensor_type;location;lat;lon;timestamp;pressure;altitude;pressure_sealevel;temperature;humidity
19751;BME280;4663;49.120;9.730;2023-05-23T00:01:35;97817.41;;;17.28;97.59
19751;BME280;4663;49.120;9.730;2023-05-23T00:04:02;97824.50;;;17.16;98.60
19751;BME280;4663;49.120;9.730;2023-05-23T00:06:28;97818.22;;;17.15;98.19
19751;BME280;4663;49.120;9.730;2023-05-23T00:08:55;97813.88;;;17.28;97.33
19751;BME280;4663;49.120;9.730;2023-05-23T00:11:20;97822.38;;;17.11;97.75
19751;BME280;4663;49.120;9.730;2023-05-23T00:13:54;97820.75;;;17.24;97.33
19751;BME280;4663;49.120;9.730;2023-05-23T00:16:19;97826.16;;;17.24;96.62
19751;BME280;4663;49.120;9.730;2023-05-23T00:18:45;97828.56;;;16.78;99.54
19751;BME280;4663;49.120;9.730;2023-05-23T00:34:38;97815.09;;;17.05;97.57
19751;BME280;4663;49.120;9.730;2023-05-23T00:37:03;97811.94;;;16.94;97.95
19751;BME280;4663;49.120;9.730;2023-05-23T00:39:29;97817.34;;;16.94;97.48
19751;BME280;4663;49.120;9.730;2023-05-23T00:41:54;97819.00;;;16.68;98.71
19751;BME280;4663;49.120;9.730;2023-05-23T00:44:20;97819.00;;;16.82;97.91
19751;BME280;4663;49.120;9.730;2023-05-23T00:46:49;97816.56;;;17.01;97.13
19751;BME280;4663;49.120;9.730;2023-05-23T00:49:16;97821.25;;;16.58;98.99
19751;BME280;4663;49.120;9.730;2023-05-23T00:51:44;97821.72;;;16.82;98.40
19751;BME280;4663;49.120;9.730;2023-05-23T00:54:10;97825.41;;;16.67;98.13
19751;BME280;4663;49.120;9.730;2023-05-23T00:56:37;97828.56;;;16.64;98.68
19751;BME280;4663;49.120;9.730;2023-05-23T00:59:04;97828.97;;;16.61;98.69
19751;BME280;4663;49.120;9.730;2023-05-23T01:01:30;97824.63;;;16.80;98.13
19751;BME280;4663;49.120;9.730;2023-05-23T01:03:55;97836.28;;;16.74;98.47
19751;BME280;4663;49.120;9.730;2023-05-23T01:06:22;97837.34;;;16.80;98.04
19751;BME280;4663;49.120;9.730;2023-05-23T01:08:47;97842.41;;;16.34;100.00
19751;BME280;4663;49.120;9.730;2023-05-23T01:11:28;97845.50;;;16.31;100.00
19751;BME280;4663;49.120;9.730;2023-05-23T01:14:00;97844.63;;;16.73;97.99
19751;BME280;4663;49.120;9.730;2023-05-23T01:16:35;97846.38;;;16.38;99.41
19751;BME280;4663;49.120;9.730;2023-05-23T01:19:15;97848.50;;;16.56;99.51
19751;BME280;4663;49.120;9.730;2023-05-23T01:21:43;97846.84;;;16.55;99.48
19751;BME280;4663;49.120;9.730;2023-05-23T01:24:35;97854.72;;;16.43;98.92
19751;BME280;4663;49.120;9.730;2023-05-23T01:27:23;97851.75;;;16.31;100.00
19751;BME280;4663;49.120;9.730;2023-05-23T01:29:57;97846.19;;;16.47;99.05
19751;BME280;4663;49.120;9.730;2023-05-23T01:32:25;97848.97;;;16.60;97.77
19751;BME280;4663;49.120;9.730;2023-05-23T01:34:54;97842.88;;;16.51;98.65
19751;BME280;4663;49.120;9.730;2023-05-23T01:37:20;97846.72;;;16.22;99.82
19751;BME280;4663;49.120;9.730;2023-05-23T01:39:46;97843.88;;;16.43;99.08
19751;BME280;4663;49.120;9.730;2023-05-23T01:42:12;97848.91;;;16.53;98.12
19751;BME280;4663;49.120;9.730;2023-05-23T01:44:38;97842.28;;;16.56;98.17
19751;BME280;4663;49.120;9.730;2023-05-23T01:47:06;97843.09;;;16.50;98.81
19751;BME280;4663;49.120;9.730;2023-05-23T01:49:33;97849.56;;;16.55;97.59
19751;BME280;4663;49.120;9.730;2023-05-23T01:52:00;97851.75;;;16.25;98.61
19751;BME280;4663;49.120;9.730;2023-05-23T01:54:27;97848.00;;;16.26;98.27
19751;BME280;4663;49.120;9.730;2023-05-23T01:56:55;97852.28;;;16.62;96.80
19751;BME280;4663;49.120;9.730;2023-05-23T01:59:21;97844.31;;;16.40;97.35
19751;BME280;4663;49.120;9.730;2023-05-23T02:01:47;97856.66;;;16.08;98.11
19751;BME280;4663;49.120;9.730;2023-05-23T02:04:13;97859.22;;;15.94;99.37
19751;BME280;4663;49.120;9.730;2023-05-23T02:06:38;97849.16;;;16.10;98.58
19751;BME280;4663;49.120;9.730;2023-05-23T02:09:03;97850.53;;;15.99;97.77
19751;BME280;4663;49.120;9.730;2023-05-23T02:11:29;97848.56;;;15.86;99.62
19751;BME280;4663;49.120;9.730;2023-05-23T02:13:54;97858.31;;;15.80;99.83
19751;BME280;4663;49.120;9.730;2023-05-23T02:16:19;97861.47;;;16.12;97.97
19751;BME280;4663;49.120;9.730;2023-05-23T02:18:45;97858.03;;;16.32;97.07
19751;BME280;4663;49.120;9.730;2023-05-23T02:21:11;97856.41;;;16.44;96.02
19751;BME280;4663;49.120;9.730;2023-05-23T02:23:36;97861.91;;;16.23;96.43
19751;BME280;4663;49.120;9.730;2023-05-23T02:26:01;97850.09;;;15.95;97.63
19751;BME280;4663;49.120;9.730;2023-05-23T02:28:27;97856.59;;;16.01;97.13
19751;BME280;4663;49.120;9.730;2023-05-23T02:30:52;97864.06;;;15.99;98.51
19751;BME280;4663;49.120;9.730;2023-05-23T02:33:18;97864.25;;;15.97;97.63
19751;BME280;4663;49.120;9.730;2023-05-23T02:35:43;97877.47;;;16.14;97.05
19751;BME280;4663;49.120;9.730;2023-05-23T02:38:09;97869.34;;;16.14;96.20
19751;BME280;4663;49.120;9.730;2023-05-23T02:40:34;97871.06;;;15.86;98.49
19751;BME280;4663;49.120;9.730;2023-05-23T02:43:00;97868.66;;;15.98;97.53
19751;BME280;4663;49.120;9.730;2023-05-23T02:45:25;97873.06;;;16.06;97.98
19751;BME280;4663;49.120;9.730;2023-05-23T02:47:50;97874.25;;;15.68;99.31
19751;BME280;4663;49.120;9.730;2023-05-23T02:50:16;97883.09;;;15.84;98.74
19751;BME280;4663;49.120;9.730;2023-05-23T02:52:41;97881.22;;;15.84;99.93
19751;BME280;4663;49.120;9.730;2023-05-23T02:55:07;97882.53;;;15.88;98.64
19751;BME280;4663;49.120;9.730;2023-05-23T02:57:33;97878.47;;;15.77;99.18
19751;BME280;4663;49.120;9.730;2023-05-23T02:59:58;97874.47;;;16.02;98.04
19751;BME280;4663;49.120;9.730;2023-05-23T03:02:23;97879.03;;;16.01;98.55
19751;BME280;4663;49.120;9.730;2023-05-23T03:04:50;97887.44;;;16.06;97.87
19751;BME280;4663;49.120;9.730;2023-05-23T03:07:15;97885.56;;;15.78;99.15
19751;BME280;4663;49.120;9.730;2023-05-23T03:09:40;97888.78;;;15.96;99.27
19751;BME280;4663;49.120;9.730;2023-05-23T03:12:06;97886.03;;;15.89;99.48
19751;BME280;4663;49.120;9.730;2023-05-23T03:14:31;97872.56;;;15.96;98.30
19751;BME280;4663;49.120;9.730;2023-05-23T03:16:56;97885.81;;;16.12;98.02
19751;BME280;4663;49.120;9.730;2023-05-23T03:19:22;97886.53;;;15.99;99.05
19751;BME280;4663;49.120;9.730;2023-05-23T03:21:48;97883.63;;;16.01;98.27
19751;BME280;4663;49.120;9.730;2023-05-23T03:24:15;97892.50;;;16.16;97.36
19751;BME280;4663;49.120;9.730;2023-05-23T03:26:40;97886.91;;;16.25;96.58
19751;BME280;4663;49.120;9.730;2023-05-23T03:29:05;97889.78;;;16.16;97.57
19751;BME280;4663;49.120;9.730;2023-05-23T03:31:31;97887.72;;;15.90;98.47
19751;BME280;4663;49.120;9.730;2023-05-23T03:33:56;97884.41;;;15.94;97.30
19751;BME280;4663;49.120;9.730;2023-05-23T03:36:22;97893.28;;;16.10;97.11
19751;BME280;4663;49.120;9.730;2023-05-23T03:38:51;97889.72;;;16.10;96.93
19751;BME280;4663;49.120;9.730;2023-05-23T03:41:17;97891.63;;;16.09;98.32
19751;BME280;4663;49.120;9.730;2023-05-23T03:43:42;97892.88;;;16.06;97.57
19751;BME280;4663;49.120;9.730;2023-05-23T03:46:08;97892.09;;;15.62;99.34
19751;BME280;4663;49.120;9.730;2023-05-23T03:48:33;97899.81;;;15.65;99.95
19751;BME280;4663;49.120;9.730;2023-05-23T03:50:58;97906.06;;;15.94;98.47
19751;BME280;4663;49.120;9.730;2023-05-23T03:53:24;97901.53;;;16.02;97.84
19751;BME280;4663;49.120;9.730;2023-05-23T03:55:49;97907.91;;;16.23;97.64
19751;BME280;4663;49.120;9.730;2023-05-23T03:58:14;97904.09;;;16.10;98.58
19751;BME280;4663;49.120;9.730;2023-05-23T04:00:40;97905.38;;;16.14;99.17
19751;BME280;4663;49.120;9.730;2023-05-23T04:03:05;97907.91;;;15.94;99.11
19751;BME280;4663;49.120;9.730;2023-05-23T04:05:32;97901.03;;;15.91;99.81
19751;BME280;4663;49.120;9.730;2023-05-23T04:07:57;97908.41;;;16.04;98.32
19751;BME280;4663;49.120;9.730;2023-05-23T04:10:25;97912.75;;;15.99;97.91
19751;BME280;4663;49.120;9.730;2023-05-23T04:12:50;97922.47;;;16.15;98.95
19751;BME280;4663;49.120;9.730;2023-05-23T04:15:17;97909.66;;;16.02;98.80
19751;BME280;4663;49.120;9.730;2023-05-23T04:17:45;97921.59;;;16.14;99.25
19751;BME280;4663;49.120;9.730;2023-05-23T04:20:11;97923.09;;;16.24;99.08
19751;BME280;4663;49.120;9.730;2023-05-23T04:22:37;97923.59;;;16.34;97.78
19751;BME280;4663;49.120;9.730;2023-05-23T04:25:02;97923.06;;;16.17;98.92
19751;BME280;4663;49.120;9.730;2023-05-23T04:27:28;97924.97;;;16.16;99.83
19751;BME280;4663;49.120;9.730;2023-05-23T04:29:53;97926.44;;;16.19;100.00
19751;BME280;4663;49.120;9.730;2023-05-23T04:32:20;97934.19;;;16.29;99.16
19751;BME280;4663;49.120;9.730;2023-05-23T04:34:47;97931.59;;;16.14;100.00
19751;BME280;4663;49.120;9.730;2023-05-23T04:37:12;97930.88;;;16.34;100.00
19751;BME280;4663;49.120;9.730;2023-05-23T04:39:38;97919.19;;;15.98;100.00
19751;BME280;4663;49.120;9.730;2023-05-23T04:42:04;97929.22;;;16.32;100.00
19751;BME280;4663;49.120;9.730;2023-05-23T04:44:31;97932.63;;;16.48;99.23
19751;BME280;4663;49.120;9.730;2023-05-23T04:46:57;97927.00;;;16.50;99.90
19751;BME280;4663;49.120;9.730;2023-05-23T04:49:23;97928.69;;;16.57;100.00
19751;BME280;4663;49.120;9.730;2023-05-23T04:51:49;97929.50;;;16.51;100.00
19751;BME280;4663;49.120;9.730;2023-05-23T04:54:15;97933.00;;;16.45;100.00
19751;BME280;4663;49.120;9.730;2023-05-23T04:56:40;97930.81;;;16.69;99.42
19751;BME280;4663;49.120;9.730;2023-05-23T04:59:06;97933.91;;;16.59;100.00
19751;BME280;4663;49.120;9.730;2023-05-23T05:01:33;97936.88;;;16.64;100.00
19751;BME280;4663;49.120;9.730;2023-05-23T05:03:58;97939.22;;;16.81;100.00
19751;BME280;4663;49.120;9.730;2023-05-23T05:06:24;97942.69;;;16.61;100.00
19751;BME280;4663;49.120;9.730;2023-05-23T05:08:51;97934.84;;;16.80;100.00
19751;BME280;4663;49.120;9.730;2023-05-23T05:11:17;97940.72;;;16.97;100.00
19751;BME280;4663;49.120;9.730;2023-05-23T05:13:42;97938.09;;;17.17;99.13
19751;BME280;4663;49.120;9.730;2023-05-23T05:16:08;97937.06;;;17.18;99.76
19751;BME280;4663;49.120;9.730;2023-05-23T05:18:34;97934.19;;;17.88;99.86
19751;BME280;4663;49.120;9.730;2023-05-23T05:21:00;97933.13;;;17.82;98.12
19751;BME280;4663;49.120;9.730;2023-05-23T05:23:26;97938.16;;;17.71;99.12
19751;BME280;4663;49.120;9.730;2023-05-23T05:25:55;97938.78;;;17.73;100.00
19751;BME280;4663;49.120;9.730;2023-05-23T05:28:21;97949.22;;;17.97;98.62
19751;BME280;4663;49.120;9.730;2023-05-23T05:30:46;97955.47;;;17.84;98.51
19751;BME280;4663;49.120;9.730;2023-05-23T05:33:12;97955.25;;;17.65;100.00
19751;BME280;4663;49.120;9.730;2023-05-23T05:35:38;97958.59;;;17.74;100.00
19751;BME280;4663;49.120;9.730;2023-05-23T05:38:04;97949.63;;;17.60;100.00
19751;BME280;4663;49.120;9.730;2023-05-23T05:40:33;97952.13;;;17.62;100.00
19751;BME280;4663;49.120;9.730;2023-05-23T05:42:58;97954.03;;;18.02;100.00
19751;BME280;4663;49.120;9.730;2023-05-23T05:45:24;97949.19;;;18.90;100.00
19751;BME280;4663;49.120;9.730;2023-05-23T05:47:49;97935.66;;;19.22;96.02
19751;BME280;4663;49.120;9.730;2023-05-23T05:50:16;97942.50;;;19.64;92.96
19751;BME280;4663;49.120;9.730;2023-05-23T05:52:43;97952.38;;;20.35;94.84
19751;BME280;4663;49.120;9.730;2023-05-23T05:55:10;97939.97;;;20.58;90.60
19751;BME280;4663;49.120;9.730;2023-05-23T05:57:36;97946.59;;;20.80;89.92
19751;BME280;4663;49.120;9.730;2023-05-23T06:00:05;97946.91;;;21.22;90.71
19751;BME280;4663;49.120;9.730;2023-05-23T06:02:36;97951.47;;;21.40;89.99
19751;BME280;4663;49.120;9.730;2023-05-23T06:05:02;97941.13;;;20.80;85.91
19751;BME280;4663;49.120;9.730;2023-05-23T06:07:28;97951.44;;;20.41;86.94
19751;BME280;4663;49.120;9.730;2023-05-23T06:09:53;97959.44;;;19.91;89.92
19751;BME280;4663;49.120;9.730;2023-05-23T06:12:19;97965.13;;;19.90;88.89
19751;BME280;4663;49.120;9.730;2023-05-23T06:14:44;97970.16;;;19.61;92.04
19751;BME280;4663;49.120;9.730;2023-05-23T06:17:09;97966.31;;;19.36;92.60
19751;BME280;4663;49.120;9.730;2023-05-23T06:19:35;97971.66;;;19.18;89.79
19751;BME280;4663;49.120;9.730;2023-05-23T06:22:01;97970.72;;;18.98;90.12
19751;BME280;4663;49.120;9.730;2023-05-23T06:24:27;97977.59;;;19.40;89.45
19751;BME280;4663;49.120;9.730;2023-05-23T06:26:52;97974.53;;;19.62;89.74
19751;BME280;4663;49.120;9.730;2023-05-23T06:29:20;97982.88;;;19.67;88.57
19751;BME280;4663;49.120;9.730;2023-05-23T06:31:45;97984.69;;;19.73;93.66
19751;BME280;4663;49.120;9.730;2023-05-23T06:34:11;97979.78;;;19.24;91.01
19751;BME280;4663;49.120;9.730;2023-05-23T06:36:36;97984.53;;;19.36;90.27
19751;BME280;4663;49.120;9.730;2023-05-23T06:39:01;97991.06;;;19.21;93.79
19751;BME280;4663;49.120;9.730;2023-05-23T06:41:26;97995.19;;;19.37;95.86
19751;BME280;4663;49.120;9.730;2023-05-23T06:43:52;97996.56;;;19.47;95.32
19751;BME280;4663;49.120;9.730;2023-05-23T06:46:17;97993.06;;;19.39;91.68
19751;BME280;4663;49.120;9.730;2023-05-23T06:48:43;97991.69;;;19.62;91.84
19751;BME280;4663;49.120;9.730;2023-05-23T06:51:08;97997.53;;;19.66;93.76
19751;BME280;4663;49.120;9.730;2023-05-23T06:53:34;97997.84;;;19.44;95.49
19751;BME280;4663;49.120;9.730;2023-05-23T06:55:59;98004.53;;;19.48;93.47
19751;BME280;4663;49.120;9.730;2023-05-23T06:58:25;98003.41;;;19.63;91.03
19751;BME280;4663;49.120;9.730;2023-05-23T07:00:51;97998.81;;;18.79;93.05
19751;BME280;4663;49.120;9.730;2023-05-23T07:03:16;98001.13;;;19.14;94.63
19751;BME280;4663;49.120;9.730;2023-05-23T07:05:41;98005.97;;;19.12;90.94
19751;BME280;4663;49.120;9.730;2023-05-23T07:08:07;98000.28;;;19.20;89.21
19751;BME280;4663;49.120;9.730;2023-05-23T07:10:34;98012.41;;;19.24;93.28
19751;BME280;4663;49.120;9.730;2023-05-23T07:13:00;98016.16;;;19.23;92.78
19751;BME280;4663;49.120;9.730;2023-05-23T07:15:25;98023.38;;;18.97;95.68
19751;BME280;4663;49.120;9.730;2023-05-23T07:17:51;98019.88;;;19.36;94.82
19751;BME280;4663;49.120;9.730;2023-05-23T07:20:16;98017.28;;;19.09;93.91
19751;BME280;4663;49.120;9.730;2023-05-23T07:22:41;98017.97;;;18.91;92.19
19751;BME280;4663;49.120;9.730;2023-05-23T07:25:07;98028.06;;;18.76;95.16
19751;BME280;4663;49.120;9.730;2023-05-23T07:27:33;98020.06;;;18.95;92.59
19751;BME280;4663;49.120;9.730;2023-05-23T07:29:59;98028.56;;;19.06;92.81
19751;BME280;4663;49.120;9.730;2023-05-23T07:32:25;98024.72;;;18.74;92.10
19751;BME280;4663;49.120;9.730;2023-05-23T07:34:50;98025.34;;;18.70;92.28
19751;BME280;4663;49.120;9.730;2023-05-23T07:37:16;98021.09;;;19.40;90.55
19751;BME280;4663;49.120;9.730;2023-05-23T07:39:42;98030.28;;;20.36;86.71
19751;BME280;4663;49.120;9.730;2023-05-23T07:42:07;98025.78;;;21.54;84.75
19751;BME280;4663;49.120;9.730;2023-05-23T07:44:32;98015.72;;;21.54;82.47
19751;BME280;4663;49.120;9.730;2023-05-23T07:46:58;98021.34;;;21.83;80.78
19751;BME280;4663;49.120;9.730;2023-05-23T07:49:23;98018.53;;;21.48;80.41
19751;BME280;4663;49.120;9.730;2023-05-23T07:51:49;98029.16;;;20.18;79.89
19751;BME280;4663;49.120;9.730;2023-05-23T07:54:14;98018.44;;;20.23;79.90
19751;BME280;4663;49.120;9.730;2023-05-23T07:56:39;98027.56;;;20.36;83.18
19751;BME280;4663;49.120;9.730;2023-05-23T07:59:05;98038.06;;;20.32;82.72
19751;BME280;4663;49.120;9.730;2023-05-23T08:01:30;98038.81;;;19.88;81.99
19751;BME280;4663;49.120;9.730;2023-05-23T08:03:56;98045.00;;;20.53;83.80
19751;BME280;4663;49.120;9.730;2023-05-23T08:06:21;98039.88;;;20.83;79.84
19751;BME280;4663;49.120;9.730;2023-05-23T08:08:46;98030.16;;;20.68;76.71
19751;BME280;4663;49.120;9.730;2023-05-23T08:11:12;98037.06;;;21.27;77.02
19751;BME280;4663;49.120;9.730;2023-05-23T08:13:39;98040.75;;;20.76;78.16
19751;BME280;4663;49.120;9.730;2023-05-23T08:16:04;98047.38;;;20.68;77.11
19751;BME280;4663;49.120;9.730;2023-05-23T08:18:30;98038.59;;;21.53;74.26
19751;BME280;4663;49.120;9.730;2023-05-23T08:20:55;98043.94;;;21.11;75.46
19751;BME280;4663;49.120;9.730;2023-05-23T08:23:21;98048.34;;;21.30;78.58
19751;BME280;4663;49.120;9.730;2023-05-23T08:25:46;98054.09;;;20.66;77.20
19751;BME280;4663;49.120;9.730;2023-05-23T08:28:12;98050.78;;;21.20;77.28
19751;BME280;4663;49.120;9.730;2023-05-23T08:30:37;98057.75;;;21.16;77.45
19751;BME280;4663;49.120;9.730;2023-05-23T08:33:02;98063.88;;;20.92;77.50
19751;BME280;4663;49.120;9.730;2023-05-23T08:35:29;98069.78;;;19.94;78.93
19751;BME280;4663;49.120;9.730;2023-05-23T08:37:59;98075.09;;;20.08;77.22
19751;BME280;4663;49.120;9.730;2023-05-23T08:40:26;98069.50;;;19.70;78.12
19751;BME280;4663;49.120;9.730;2023-05-23T08:42:53;98072.28;;;19.89;76.92
19751;BME280;4663;49.120;9.730;2023-05-23T08:45:19;98076.16;;;20.07;77.70
19751;BME280;4663;49.120;9.730;2023-05-23T08:47:45;98074.59;;;19.53;76.54
19751;BME280;4663;49.120;9.730;2023-05-23T08:50:12;98070.53;;;19.69;75.42
19751;BME280;4663;49.120;9.730;2023-05-23T08:52:58;98081.63;;;19.74;75.69
19751;BME280;4663;49.120;9.730;2023-05-23T08:55:25;98079.63;;;19.49;75.11
19751;BME280;4663;49.120;9.730;2023-05-23T08:57:54;98090.06;;;19.91;78.03
19751;BME280;4663;49.120;9.730;2023-05-23T09:00:21;98080.47;;;19.89;73.44
19751;BME280;4663;49.120;9.730;2023-05-23T09:02:47;98096.50;;;20.36;75.03
19751;BME280;4663;49.120;9.730;2023-05-23T09:05:13;98088.00;;;20.19;74.65
19751;BME280;4663;49.120;9.730;2023-05-23T09:07:39;98075.72;;;19.32;73.29
19751;BME280;4663;49.120;9.730;2023-05-23T09:10:05;98087.34;;;19.07;77.88
19751;BME280;4663;49.120;9.730;2023-05-23T09:12:34;98088.44;;;19.38;75.25
19751;BME280;4663;49.120;9.730;2023-05-23T09:15:03;98090.94;;;19.46;75.61
19751;BME280;4663;49.120;9.730;2023-05-23T09:17:33;98090.16;;;19.39;74.50
19751;BME280;4663;49.120;9.730;2023-05-23T09:19:59;98089.66;;;20.20;74.42
19751;BME280;4663;49.120;9.730;2023-05-23T09:22:26;98089.56;;;20.08;72.88
19751;BME280;4663;49.120;9.730;2023-05-23T09:24:54;98100.25;;;20.35;74.99
19751;BME280;4663;49.120;9.730;2023-05-23T09:27:19;98100.44;;;20.66;73.88
19751;BME280;4663;49.120;9.730;2023-05-23T09:29:44;98100.06;;;20.81;71.72
19751;BME280;4663;49.120;9.730;2023-05-23T09:32:19;98098.47;;;19.90;70.83
19751;BME280;4663;49.120;9.730;2023-05-23T09:37:28;98095.25;;;19.68;76.48
19751;BME280;4663;49.120;9.730;2023-05-23T09:39:54;98099.72;;;19.94;74.19
19751;BME280;4663;49.120;9.730;2023-05-23T09:42:21;98097.16;;;19.99;75.62
19751;BME280;4663;49.120;9.730;2023-05-23T09:44:47;98102.31;;;19.75;74.25
19751;BME280;4663;49.120;9.730;2023-05-23T09:47:14;98108.31;;;20.49;74.89
19751;BME280;4663;49.120;9.730;2023-05-23T09:49:42;98090.44;;;20.78;71.45
19751;BME280;4663;49.120;9.730;2023-05-23T09:52:08;98096.88;;;21.03;72.07
19751;BME280;4663;49.120;9.730;2023-05-23T09:54:33;98105.94;;;20.78;72.25
19751;BME280;4663;49.120;9.730;2023-05-23T09:57:01;98115.06;;;20.46;72.27
19751;BME280;4663;49.120;9.730;2023-05-23T09:59:27;98115.63;;;20.74;72.53
19751;BME280;4663;49.120;9.730;2023-05-23T10:01:56;98101.78;;;20.75;71.47
19751;BME280;4663;49.120;9.730;2023-05-23T10:04:21;98102.44;;;19.94;71.59
19751;BME280;4663;49.120;9.730;2023-05-23T10:06:56;98115.81;;;19.57;72.68
19751;BME280;4663;49.120;9.730;2023-05-23T10:09:25;98118.66;;;20.08;74.49
19751;BME280;4663;49.120;9.730;2023-05-23T10:15:04;98110.09;;;20.29;72.94
19751;BME280;4663;49.120;9.730;2023-05-23T10:18:00;98113.00;;;20.41;72.34
19751;BME280;4663;49.120;9.730;2023-05-23T10:20:29;98121.00;;;20.80;75.31
19751;BME280;4663;49.120;9.730;2023-05-23T10:22:59;98109.81;;;20.70;73.35
19751;BME280;4663;49.120;9.730;2023-05-23T10:25:25;98124.81;;;20.54;73.87
19751;BME280;4663;49.120;9.730;2023-05-23T10:27:54;98119.28;;;20.67;72.74
19751;BME280;4663;49.120;9.730;2023-05-23T10:30:23;98112.09;;;19.83;71.75
19751;BME280;4663;49.120;9.730;2023-05-23T10:32:50;98125.22;;;19.54;75.14
19751;BME280;4663;49.120;9.730;2023-05-23T10:38:17;98119.19;;;19.91;73.06
19751;BME280;4663;49.120;9.730;2023-05-23T10:41:11;98127.69;;;20.40;73.45
19751;BME280;4663;49.120;9.730;2023-05-23T10:43:50;98107.41;;;20.99;71.48
19751;BME280;4663;49.120;9.730;2023-05-23T10:46:19;98092.19;;;21.10;70.54
19751;BME280;4663;49.120;9.730;2023-05-23T10:48:53;98104.88;;;21.42;70.90
19751;BME280;4663;49.120;9.730;2023-05-23T10:51:21;98095.78;;;21.79;67.81
19751;BME280;4663;49.120;9.730;2023-05-23T10:53:52;98105.78;;;21.85;68.16
19751;BME280;4663;49.120;9.730;2023-05-23T10:56:20;98097.03;;;20.45;66.12
19751;BME280;4663;49.120;9.730;2023-05-23T10:58:51;98113.09;;;20.21;68.73
19751;BME280;4663;49.120;9.730;2023-05-23T11:01:18;98113.66;;;20.04;70.42
19751;BME280;4663;49.120;9.730;2023-05-23T11:06:39;98103.00;;;20.28;68.54
19751;BME280;4663;49.120;9.730;2023-05-23T11:09:16;98116.03;;;20.26;70.91
19751;BME280;4663;49.120;9.730;2023-05-23T11:12:05;98108.09;;;20.50;69.29
19751;BME280;4663;49.120;9.730;2023-05-23T11:19:37;98125.09;;;20.71;73.40
19751;BME280;4663;49.120;9.730;2023-05-23T11:22:06;98106.88;;;20.46;70.29
19751;BME280;4663;49.120;9.730;2023-05-23T11:24:52;98096.56;;;20.74;68.22
19751;BME280;4663;49.120;9.730;2023-05-23T11:27:34;98106.56;;;20.03;67.74
19751;BME280;4663;49.120;9.730;2023-05-23T11:30:14;98114.72;;;20.03;68.72
19751;BME280;4663;49.120;9.730;2023-05-23T11:32:41;98130.84;;;20.63;73.53
19751;BME280;4663;49.120;9.730;2023-05-23T11:35:08;98134.63;;;20.62;73.07
19751;BME280;4663;49.120;9.730;2023-05-23T11:37:36;98117.84;;;20.33;72.42
19751;BME280;4663;49.120;9.730;2023-05-23T11:42:50;98125.97;;;20.46;73.95
19751;BME280;4663;49.120;9.730;2023-05-23T11:45:18;98130.06;;;20.55;73.17
19751;BME280;4663;49.120;9.730;2023-05-23T11:47:43;98129.41;;;20.35;75.43
19751;BME280;4663;49.120;9.730;2023-05-23T11:50:09;98118.84;;;20.89;73.53
19751;BME280;4663;49.120;9.730;2023-05-23T11:52:35;98126.78;;;20.47;72.76
19751;BME280;4663;49.120;9.730;2023-05-23T11:55:00;98121.06;;;20.23;70.00
19751;BME280;4663;49.120;9.730;2023-05-23T11:57:26;98125.84;;;20.27;69.88
19751;BME280;4663;49.120;9.730;2023-05-23T11:59:52;98134.47;;;20.24;73.76
19751;BME280;4663;49.120;9.730;2023-05-23T12:02:18;98116.88;;;20.52;71.24
19751;BME280;4663;49.120;9.730;2023-05-23T12:04:44;98128.25;;;20.68;73.53
19751;BME280;4663;49.120;9.730;2023-05-23T12:07:09;98119.28;;;20.42;72.63
19751;BME280;4663;49.120;9.730;2023-05-23T12:09:42;98107.66;;;20.53;68.70
19751;BME280;4663;49.120;9.730;2023-05-23T12:12:08;98111.72;;;20.44;70.75
19751;BME280;4663;49.120;9.730;2023-05-23T12:14:33;98112.56;;;20.45;72.53
19751;BME280;4663;49.120;9.730;2023-05-23T12:16:59;98116.81;;;20.59;73.82
19751;BME280;4663;49.120;9.730;2023-05-23T12:19:26;98107.03;;;20.51;72.21
19751;BME280;4663;49.120;9.730;2023-05-23T12:21:51;98114.06;;;20.40;74.02
19751;BME280;4663;49.120;9.730;2023-05-23T12:24:21;98123.19;;;20.21;74.41
19751;BME280;4663;49.120;9.730;2023-05-23T12:26:56;98099.16;;;19.33;70.04
19751;BME280;4663;49.120;9.730;2023-05-23T12:29:29;98103.66;;;19.52;70.65
19751;BME280;4663;49.120;9.730;2023-05-23T12:31:57;98108.03;;;19.08;70.93
19751;BME280;4663;49.120;9.730;2023-05-23T12:34:23;98108.94;;;19.47;70.57
19751;BME280;4663;49.120;9.730;2023-05-23T12:36:48;98124.09;;;19.75;72.85
19751;BME280;4663;49.120;9.730;2023-05-23T12:39:14;98114.69;;;19.71;70.35
19751;BME280;4663;49.120;9.730;2023-05-23T12:41:44;98108.84;;;19.74;68.73
19751;BME280;4663;49.120;9.730;2023-05-23T12:44:10;98117.72;;;19.56;71.82
19751;BME280;4663;49.120;9.730;2023-05-23T12:46:35;98102.28;;;19.30;68.36
19751;BME280;4663;49.120;9.730;2023-05-23T12:49:01;98108.28;;;19.45;71.08
19751;BME280;4663;49.120;9.730;2023-05-23T12:51:27;98124.75;;;19.71;73.98
19751;BME280;4663;49.120;9.730;2023-05-23T12:53:53;98112.28;;;19.56;72.22
19751;BME280;4663;49.120;9.730;2023-05-23T12:56:19;98115.50;;;19.78;72.49
19751;BME280;4663;49.120;9.730;2023-05-23T12:58:45;98112.84;;;19.97;71.95
19751;BME280;4663;49.120;9.730;2023-05-23T13:01:10;98114.88;;;19.76;73.25
19751;BME280;4663;49.120;9.730;2023-05-23T13:03:36;98129.28;;;20.16;77.31
19751;BME280;4663;49.120;9.730;2023-05-23T13:06:02;98111.72;;;19.79;72.86
19751;BME280;4663;49.120;9.730;2023-05-23T13:08:27;98115.50;;;19.78;73.67
19751;BME280;4663;49.120;9.730;2023-05-23T13:10:53;98105.69;;;20.10;72.60
19751;BME280;4663;49.120;9.730;2023-05-23T13:13:19;98100.19;;;20.16;71.35
19751;BME280;4663;49.120;9.730;2023-05-23T13:15:45;98114.88;;;19.76;73.04
19751;BME280;4663;49.120;9.730;2023-05-23T13:18:10;98113.22;;;20.08;73.97
19751;BME280;4663;49.120;9.730;2023-05-23T13:20:35;98115.41;;;20.24;71.58
19751;BME280;4663;49.120;9.730;2023-05-23T13:23:02;98105.38;;;19.92;69.47
19751;BME280;4663;49.120;9.730;2023-05-23T13:25:27;98115.78;;;20.02;71.95
19751;BME280;4663;49.120;9.730;2023-05-23T13:27:53;98107.50;;;19.84;71.64
19751;BME280;4663;49.120;9.730;2023-05-23T13:30:20;98099.28;;;20.23;69.77
19751;BME280;4663;49.120;9.730;2023-05-23T13:32:45;98088.41;;;19.58;68.21
19751;BME280;4663;49.120;9.730;2023-05-23T13:35:11;98105.31;;;19.67;69.54
19751;BME280;4663;49.120;9.730;2023-05-23T13:37:36;98107.94;;;20.13;73.46
19751;BME280;4663;49.120;9.730;2023-05-23T13:40:03;98105.81;;;20.47;71.28
19751;BME280;4663;49.120;9.730;2023-05-23T13:42:29;98103.44;;;20.58;71.47